Time,TemperatureF,DewpointF,PressureIn,WindDirection,WindDirectionDegrees,WindSpeedMPH,WindSpeedGustMPH,Humidity,HourlyPrecipIn,Conditions,Clouds,dailyrainin,SolarRadiationWatts/m^2,SoftwareType,DateUTC
2013-05-30 00:03:00,53.5,49.0,29.95,SSW,205,0.0,4.0,85,0.00,,,0.00,0,weatherlink.com 1.10,2013-05-30 07:03:00,
2013-05-30 00:18:00,53.3,49.0,29.95,West,273,1.0,6.0,86,0.00,,,0.00,0,weatherlink.com 1.10,2013-05-30 07:18:00,
2013-05-30 00:34:00,53.0,49.0,29.95,WSW,252,3.0,7.0,87,0.00,,,0.00,0,weatherlink.com 1.10,2013-05-30 07:34:00,
2013-05-30 00:49:00,52.7,49.0,29.95,WNW,290,3.0,9.0,87,0.00,,,0.00,0,weatherlink.com 1.10,2013-05-30 07:49:00,
2013-05-30 01:04:00,52.6,49.0,29.95,WSW,258,0.0,6.0,87,0.00,,,0.00,0,weatherlink.com 1.10,2013-05-30 08:04:00,
2013-05-30 01:19:00,52.6,49.0,29.94,WSW,246,5.0,7.0,87,0.00,,,0.00,0,weatherlink.com 1.10,2013-05-30 08:19:00,
2013-05-30 01:34:00,52.4,49.0,29.94,WNW,294,0.0,4.0,87,0.00,,,0.00,0,weatherlink.com 1.10,2013-05-30 08:34:00,
2013-05-30 01:49:00,52.4,49.0,29.94,WNW,294,1.0,3.0,87,0.00,,,0.00,0,weatherlink.com 1.10,2013-05-30 08:49:00,
2013-05-30 02:04:00,51.8,48.0,29.94,WNW,294,1.0,4.0,88,0.00,,,0.00,0,weatherlink.com 1.10,2013-05-30 09:04:00,
2013-05-30 02:19:00,51.2,48.0,29.94,WNW,289,2.0,4.0,89,0.00,,,0.00,0,weatherlink.com 1.10,2013-05-30 09:19:00,
2013-05-30 02:34:00,51.1,48.0,29.94,WNW,288,0.0,4.0,89,0.00,,,0.00,0,weatherlink.com 1.10,2013-05-30 09:34:00,
2013-05-30 02:49:00,51.2,48.0,29.94,WSW,237,1.0,4.0,89,0.00,,,0.00,0,weatherlink.com 1.10,2013-05-30 09:49:00,
2013-05-30 03:04:00,51.5,48.0,29.94,WSW,237,0.0,4.0,89,0.00,,,0.00,0,weatherlink.com 1.10,2013-05-30 10:04:00,
2013-05-30 03:19:00,51.8,49.0,29.94,WNW,293,2.0,9.0,89,0.00,,,0.00,0,weatherlink.com 1.10,2013-05-30 10:19:00,
2013-05-30 03:34:00,51.7,49.0,29.94,WNW,297,7.0,9.0,89,0.00,,,0.00,0,weatherlink.com 1.10,2013-05-30 10:34:00,
2013-05-30 03:49:00,51.4,49.0,29.94,West,265,11.0,11.0,90,0.00,,,0.00,0,weatherlink.com 1.10,2013-05-30 10:49:00,
2013-05-30 04:04:00,51.1,49.0,29.95,WNW,294,4.0,10.0,91,0.00,,,0.00,0,weatherlink.com 1.10,2013-05-30 11:04:00,
2013-05-30 04:19:00,50.9,48.0,29.95,West,279,3.0,10.0,91,0.00,,,0.00,0,weatherlink.com 1.10,2013-05-30 11:19:00,
2013-05-30 04:34:00,50.7,49.0,29.95,WNW,294,0.0,10.0,92,0.00,,,0.00,0,weatherlink.com 1.10,2013-05-30 11:34:00,
2013-05-30 04:49:00,50.6,48.0,29.96,WNW,286,2.0,8.0,92,0.00,,,0.00,0,weatherlink.com 1.10,2013-05-30 11:49:00,
2013-05-30 05:04:00,50.8,49.0,29.96,WNW,295,1.0,6.0,92,0.00,,,0.00,0,weatherlink.com 1.10,2013-05-30 12:04:00,
2013-05-30 05:19:00,50.6,48.0,29.95,WNW,284,3.0,8.0,92,0.00,,,0.00,0,weatherlink.com 1.10,2013-05-30 12:19:00,
2013-05-30 05:34:00,50.6,48.0,29.95,West,274,3.0,6.0,92,0.00,,,0.00,0,weatherlink.com 1.10,2013-05-30 12:34:00,
2013-05-30 05:49:00,50.4,48.0,29.95,WNW,296,3.0,8.0,92,0.00,,,0.00,5,weatherlink.com 1.10,2013-05-30 12:49:00,
2013-05-30 06:04:00,50.3,48.0,29.95,SW,232,3.0,8.0,92,0.00,,,0.00,12,weatherlink.com 1.10,2013-05-30 13:04:00,
2013-05-30 06:19:00,50.1,48.0,29.96,West,266,1.0,5.0,92,0.00,,,0.00,18,weatherlink.com 1.10,2013-05-30 13:19:00,
2013-05-30 06:34:00,50.4,48.0,29.96,West,266,0.0,3.0,92,0.00,,,0.00,37,weatherlink.com 1.10,2013-05-30 13:34:00,
2013-05-30 06:49:00,50.8,48.0,29.96,West,266,1.0,2.0,90,0.00,,,0.00,58,weatherlink.com 1.10,2013-05-30 13:49:00,
2013-05-30 07:04:00,50.9,48.0,29.97,NNE,17,2.0,4.0,91,0.00,,,0.00,84,weatherlink.com 1.10,2013-05-30 14:04:00,
2013-05-30 07:19:00,51.8,49.0,29.97,WSW,244,1.0,9.0,90,0.00,,,0.00,128,weatherlink.com 1.10,2013-05-30 14:19:00,
2013-05-30 07:34:00,53.5,50.0,29.97,West,259,7.0,9.0,87,0.00,,,0.00,315,weatherlink.com 1.10,2013-05-30 14:34:00,
2013-05-30 07:49:00,54.4,50.0,29.98,WSW,251,4.0,8.0,84,0.00,,,0.00,297,weatherlink.com 1.10,2013-05-30 14:49:00,
2013-05-30 08:05:00,55.1,50.0,29.98,SSE,165,4.0,8.0,82,0.00,,,0.00,418,weatherlink.com 1.10,2013-05-30 15:05:00,
2013-05-30 08:20:00,55.0,50.0,29.99,SSW,192,4.0,7.0,82,0.00,,,0.00,476,weatherlink.com 1.10,2013-05-30 15:20:00,
2013-05-30 08:35:00,56.8,50.0,29.99,West,265,6.0,7.0,78,0.00,,,0.00,517,weatherlink.com 1.10,2013-05-30 15:35:00,
2013-05-30 08:50:00,56.9,49.0,29.99,WNW,291,5.0,11.0,75,0.00,,,0.00,566,weatherlink.com 1.10,2013-05-30 15:50:00,
2013-05-30 09:05:00,57.9,50.0,29.99,West,274,2.0,11.0,74,0.00,,,0.00,613,weatherlink.com 1.10,2013-05-30 16:05:00,
2013-05-30 09:20:00,58.9,49.0,29.99,WSW,237,4.0,12.0,70,0.00,,,0.00,657,weatherlink.com 1.10,2013-05-30 16:20:00,
2013-05-30 09:35:00,59.7,49.0,30.00,West,281,7.0,11.0,68,0.00,,,0.00,701,weatherlink.com 1.10,2013-05-30 16:35:00,
2013-05-30 09:50:00,60.7,49.0,29.99,WNW,282,2.0,11.0,66,0.00,,,0.00,744,weatherlink.com 1.10,2013-05-30 16:50:00,
2013-05-30 10:05:00,62.2,50.0,29.99,SW,219,3.0,10.0,64,0.00,,,0.00,780,weatherlink.com 1.10,2013-05-30 17:05:00,
2013-05-30 10:20:00,63.0,50.0,29.99,West,272,3.0,10.0,62,0.00,,,0.00,814,weatherlink.com 1.10,2013-05-30 17:20:00,
2013-05-30 10:35:00,64.0,49.0,29.98,WNW,296,8.0,9.0,59,0.00,,,0.00,846,weatherlink.com 1.10,2013-05-30 17:35:00,
2013-05-30 10:50:00,64.8,49.0,29.99,WNW,288,4.0,11.0,58,0.00,,,0.00,874,weatherlink.com 1.10,2013-05-30 17:50:00,
2013-05-30 11:05:00,66.1,49.0,29.98,WSW,256,9.0,9.0,55,0.00,,,0.00,898,weatherlink.com 1.10,2013-05-30 18:05:00,
2013-05-30 11:20:00,67.3,49.0,29.98,SSW,208,2.0,10.0,53,0.00,,,0.00,919,weatherlink.com 1.10,2013-05-30 18:20:00,
2013-05-30 11:35:00,68.1,49.0,29.98,SSW,200,7.0,11.0,51,0.00,,,0.00,937,weatherlink.com 1.10,2013-05-30 18:35:00,
2013-05-30 11:50:00,70.5,50.0,29.98,WSW,253,5.0,8.0,49,0.00,,,0.00,954,weatherlink.com 1.10,2013-05-30 18:50:00,
2013-05-30 12:06:00,71.1,50.0,29.98,WNW,296,4.0,12.0,47,0.00,,,0.00,967,weatherlink.com 1.10,2013-05-30 19:06:00,
2013-05-30 12:21:00,72.0,49.0,29.98,WSW,247,5.0,10.0,45,0.00,,,0.00,970,weatherlink.com 1.10,2013-05-30 19:21:00,
2013-05-30 12:36:00,72.9,50.0,29.97,West,274,5.0,13.0,44,0.00,,,0.00,972,weatherlink.com 1.10,2013-05-30 19:36:00,
2013-05-30 12:51:00,73.0,50.0,29.97,WNW,299,7.0,12.0,44,0.00,,,0.00,972,weatherlink.com 1.10,2013-05-30 19:51:00,
2013-05-30 13:06:00,72.9,49.0,29.97,WNW,285,11.0,14.0,43,0.00,,,0.00,967,weatherlink.com 1.10,2013-05-30 20:06:00,
2013-05-30 13:21:00,73.8,50.0,29.97,West,269,8.0,11.0,43,0.00,,,0.00,963,weatherlink.com 1.10,2013-05-30 20:21:00,
2013-05-30 13:36:00,74.2,50.0,29.97,WNW,283,5.0,11.0,42,0.00,,,0.00,951,weatherlink.com 1.10,2013-05-30 20:36:00,
2013-05-30 13:51:00,74.7,50.0,29.96,West,265,9.0,10.0,42,0.00,,,0.00,937,weatherlink.com 1.10,2013-05-30 20:51:00,
2013-05-30 14:06:00,75.0,50.0,29.96,West,281,3.0,11.0,41,0.00,,,0.00,921,weatherlink.com 1.10,2013-05-30 21:06:00,
2013-05-30 14:21:00,74.9,50.0,29.96,West,271,4.0,19.0,41,0.00,,,0.00,896,weatherlink.com 1.10,2013-05-30 21:21:00,
2013-05-30 14:36:00,75.0,50.0,29.96,West,262,4.0,16.0,41,0.00,,,0.00,870,weatherlink.com 1.10,2013-05-30 21:36:00,
2013-05-30 14:51:00,74.9,50.0,29.95,NW,310,13.0,18.0,41,0.00,,,0.00,837,weatherlink.com 1.10,2013-05-30 21:51:00,
2013-05-30 15:06:00,76.0,50.0,29.95,WNW,285,5.0,15.0,40,0.00,,,0.00,810,weatherlink.com 1.10,2013-05-30 22:06:00,
2013-05-30 15:21:00,75.6,50.0,29.95,West,259,9.0,17.0,40,0.00,,,0.00,775,weatherlink.com 1.10,2013-05-30 22:21:00,
2013-05-30 15:36:00,75.2,48.0,29.95,WSW,239,7.0,14.0,39,0.00,,,0.00,738,weatherlink.com 1.10,2013-05-30 22:36:00,
2013-05-30 15:51:00,74.8,49.0,29.94,WNW,284,5.0,15.0,40,0.00,,,0.00,703,weatherlink.com 1.10,2013-05-30 22:51:00,
2013-05-30 16:06:00,74.1,49.0,29.94,West,266,14.0,18.0,41,0.00,,,0.00,661,weatherlink.com 1.10,2013-05-30 23:06:00,
2013-05-30 16:21:00,73.3,49.0,29.94,WNW,284,8.0,18.0,43,0.00,,,0.00,622,weatherlink.com 1.10,2013-05-30 23:21:00,
2013-05-30 16:36:00,72.7,49.0,29.94,West,275,5.0,17.0,44,0.00,,,0.00,575,weatherlink.com 1.10,2013-05-30 23:36:00,
2013-05-30 16:51:00,71.7,49.0,29.94,West,265,11.0,16.0,45,0.00,,,0.00,531,weatherlink.com 1.10,2013-05-30 23:51:00,
2013-05-30 17:06:00,71.5,49.0,29.94,WSW,239,13.0,15.0,45,0.00,,,0.00,476,weatherlink.com 1.10,2013-05-31 00:06:00,
2013-05-30 17:21:00,71.1,46.0,29.94,WNW,287,6.0,16.0,41,0.00,,,0.00,436,weatherlink.com 1.10,2013-05-31 00:21:00,
2013-05-30 17:36:00,70.7,45.0,29.94,SW,215,6.0,15.0,40,0.00,,,0.00,390,weatherlink.com 1.10,2013-05-31 00:36:00,
2013-05-30 17:51:00,70.4,47.0,29.94,West,264,8.0,14.0,43,0.00,,,0.00,343,weatherlink.com 1.10,2013-05-31 00:51:00,
2013-05-30 18:06:00,69.6,47.0,29.94,WSW,247,5.0,13.0,45,0.00,,,0.00,294,weatherlink.com 1.10,2013-05-31 01:06:00,
2013-05-30 18:21:00,68.7,48.0,29.94,WSW,248,7.0,13.0,47,0.00,,,0.00,241,weatherlink.com 1.10,2013-05-31 01:21:00,
2013-05-30 18:36:00,67.9,48.0,29.94,WNW,298,9.0,16.0,49,0.00,,,0.00,179,weatherlink.com 1.10,2013-05-31 01:36:00,
2013-05-30 18:51:00,67.3,48.0,29.94,West,276,6.0,14.0,51,0.00,,,0.00,114,weatherlink.com 1.10,2013-05-31 01:51:00,
2013-05-30 19:06:00,65.7,48.0,29.95,WNW,282,8.0,14.0,54,0.00,,,0.00,51,weatherlink.com 1.10,2013-05-31 02:06:00,
2013-05-30 19:21:00,64.6,48.0,29.95,West,260,4.0,13.0,56,0.00,,,0.00,28,weatherlink.com 1.10,2013-05-31 02:21:00,
2013-05-30 19:36:00,63.6,48.0,29.95,NW,305,4.0,13.0,58,0.00,,,0.00,23,weatherlink.com 1.10,2013-05-31 02:36:00,
2013-05-30 19:51:00,62.8,48.0,29.95,WNW,285,4.0,13.0,59,0.00,,,0.00,18,weatherlink.com 1.10,2013-05-31 02:51:00,
2013-05-30 20:06:00,61.8,48.0,29.95,NW,306,6.0,11.0,61,0.00,,,0.00,11,weatherlink.com 1.10,2013-05-31 03:06:00,
2013-05-30 20:21:00,60.8,48.0,29.95,South,174,4.0,11.0,64,0.00,,,0.00,5,weatherlink.com 1.10,2013-05-31 03:21:00,
2013-05-30 20:36:00,60.1,48.0,29.95,SW,232,5.0,9.0,65,0.00,,,0.00,0,weatherlink.com 1.10,2013-05-31 03:36:00,
2013-05-30 20:51:00,59.5,48.0,29.95,WNW,284,2.0,11.0,67,0.00,,,0.00,0,weatherlink.com 1.10,2013-05-31 03:51:00,
2013-05-30 21:06:00,59.0,48.0,29.95,West,281,4.0,11.0,68,0.00,,,0.00,0,weatherlink.com 1.10,2013-05-31 04:06:00,
2013-05-30 21:21:00,58.4,48.0,29.96,WSW,238,6.0,10.0,69,0.00,,,0.00,0,weatherlink.com 1.10,2013-05-31 04:21:00,
2013-05-30 21:36:00,58.1,48.0,29.96,West,281,3.0,8.0,70,0.00,,,0.00,0,weatherlink.com 1.10,2013-05-31 04:36:00,
2013-05-30 21:51:00,57.8,48.0,29.96,West,267,3.0,7.0,70,0.00,,,0.00,0,weatherlink.com 1.10,2013-05-31 04:51:00,
2013-05-30 22:06:00,57.5,49.0,29.97,SW,228,5.0,8.0,72,0.00,,,0.00,0,weatherlink.com 1.10,2013-05-31 05:06:00,
2013-05-30 22:21:00,57.1,49.0,29.98,SSW,210,4.0,8.0,73,0.00,,,0.00,0,weatherlink.com 1.10,2013-05-31 05:21:00,
2013-05-30 22:36:00,56.8,49.0,29.98,SW,231,6.0,11.0,75,0.00,,,0.00,0,weatherlink.com 1.10,2013-05-31 05:36:00,
2013-05-30 22:51:00,56.6,49.0,29.98,WSW,249,2.0,6.0,75,0.00,,,0.00,0,weatherlink.com 1.10,2013-05-31 05:51:00,
2013-05-30 23:06:00,56.2,49.0,29.98,WSW,244,1.0,8.0,77,0.00,,,0.00,0,weatherlink.com 1.10,2013-05-31 06:06:00,
2013-05-30 23:21:00,55.9,49.0,29.98,West,268,1.0,7.0,77,0.00,,,0.00,0,weatherlink.com 1.10,2013-05-31 06:21:00,
2013-05-30 23:36:00,55.5,49.0,29.98,WSW,254,1.0,7.0,78,0.00,,,0.00,0,weatherlink.com 1.10,2013-05-31 06:36:00,
2013-05-30 23:51:00,55.0,48.0,29.98,WSW,251,3.0,5.0,78,0.00,,,0.00,0,weatherlink.com 1.10,2013-05-31 06:51:00,